createdAt,value
2018-12-19T10:59:35.309Z,100416.75
2018-12-19T11:04:48.179Z,100421.36
2018-12-19T11:07:16.927Z,100429.41
2018-12-19T11:09:45.704Z,100428.22
2018-12-19T11:12:14.396Z,100422.62
2018-12-19T11:14:43.439Z,100429.88
2018-12-19T11:17:12.318Z,100422.84
2018-12-19T11:19:42.166Z,100424.04
2018-12-19T11:22:12.852Z,100419.87
2018-12-19T11:24:41.717Z,100420.69
2018-12-19T11:27:10.551Z,100427.22
2018-12-19T11:29:39.282Z,100421.11
2018-12-19T11:32:08.088Z,100414.37
2018-12-19T11:34:36.791Z,100422.35
2018-12-19T11:37:05.710Z,100423.16
2018-12-19T11:39:34.456Z,100415.53
2018-12-19T11:42:03.271Z,100416.33
2018-12-19T11:44:32.036Z,100418.66
2018-12-19T11:47:00.767Z,100413.53
2018-12-19T11:49:30.267Z,100416.91
2018-12-19T11:51:59.295Z,100415.84
2018-12-19T11:54:28.053Z,100413.34
2018-12-19T11:56:57.185Z,100408.20
2018-12-19T11:59:25.851Z,100413.98
2018-12-19T12:01:54.523Z,100412.84
2018-12-19T12:04:23.279Z,100413.39
2018-12-19T12:06:53.922Z,100415.20
2018-12-19T12:09:22.780Z,100420.89
2018-12-19T12:11:51.480Z,100412.32
2018-12-19T12:14:20.270Z,100420.56
2018-12-19T12:16:48.943Z,100408.55
2018-12-19T12:19:17.627Z,100415.06
2018-12-19T12:21:46.710Z,100410.37
2018-12-19T12:24:15.769Z,100408.59
2018-12-19T12:26:44.455Z,100397.06
2018-12-19T12:29:13.274Z,100392.51
2018-12-19T12:31:42.187Z,100393.94
2018-12-19T12:34:10.888Z,100388.29
2018-12-19T12:36:39.687Z,100387.61
2018-12-19T12:39:08.710Z,100397.30
2018-12-19T12:41:37.565Z,100394.02
2018-12-19T12:44:07.228Z,100391.52
2018-12-19T12:46:37.010Z,100383.99
2018-12-19T12:49:05.799Z,100383.19
2018-12-19T12:51:34.594Z,100381.88
2018-12-19T12:54:03.430Z,100387.47
2018-12-19T12:56:32.142Z,100388.55
2018-12-19T12:59:01.450Z,100393.41
2018-12-19T13:01:30.420Z,100391.30
2018-12-19T13:03:59.110Z,100382.45
2018-12-19T13:06:27.816Z,100377.35
2018-12-19T13:08:56.862Z,100376.13
2018-12-19T13:11:25.627Z,100379.33
2018-12-19T13:13:54.335Z,100364.45
2018-12-19T13:16:23.022Z,100362.55
2018-12-19T13:18:51.833Z,100357.52
2018-12-19T13:21:20.562Z,100362.98
2018-12-19T13:23:49.357Z,100367.56
2018-12-19T13:26:18.103Z,100376.58
2018-12-19T13:28:46.765Z,100381.36
2018-12-19T13:31:15.563Z,100379.66
2018-12-19T13:33:44.453Z,100375.03
2018-12-19T13:36:13.207Z,100371.04
2018-12-19T13:38:42.003Z,100375.36
2018-12-19T13:41:10.794Z,100377.08
2018-12-19T13:43:39.570Z,100379.16
2018-12-19T13:46:08.332Z,100372.59
2018-12-19T13:48:37.278Z,100374.31
2018-12-19T13:51:06.034Z,100370.30
2018-12-19T13:53:34.719Z,100375.87
2018-12-19T13:56:03.464Z,100379.90
2018-12-19T13:58:33.872Z,100382.58
2018-12-19T14:01:02.796Z,100383.84
2018-12-19T14:03:32.572Z,100380.85
2018-12-19T14:06:01.387Z,100389.53
2018-12-19T14:08:30.166Z,100388.20
2018-12-19T14:10:58.932Z,100394.45
2018-12-19T14:13:27.736Z,100400.40
2018-12-19T14:15:56.522Z,100397.11
2018-12-19T14:18:25.414Z,100398.10
2018-12-19T14:20:54.222Z,100393.98
2018-12-19T14:23:22.921Z,100390.97
2018-12-19T14:25:51.707Z,100393.69
2018-12-19T14:28:20.458Z,100394.57
2018-12-19T14:30:49.194Z,100402.13
2018-12-19T14:33:18.035Z,100393.52
2018-12-19T14:35:46.722Z,100392.23
2018-12-19T14:38:15.450Z,100390.45
2018-12-19T14:40:44.267Z,100389.52
2018-12-19T14:43:13.110Z,100385.91
2018-12-19T14:45:41.907Z,100382.77
2018-12-19T14:48:17.114Z,100390.59
2018-12-19T14:50:45.884Z,100383.23
2018-12-19T14:53:14.588Z,100384.73
2018-12-19T14:55:43.706Z,100381.73
2018-12-19T14:58:12.638Z,100382.58
2018-12-19T15:00:41.435Z,100378.04
2018-12-19T15:03:10.114Z,100386.95
2018-12-19T15:05:38.954Z,100386.63
2018-12-19T15:08:07.664Z,100394.91
2018-12-19T15:10:36.420Z,100393.88
2018-12-19T15:13:06.288Z,100388.08
2018-12-19T15:15:34.993Z,100400.55
2018-12-19T15:18:03.932Z,100398.77
2018-12-19T15:20:32.720Z,100395.23
2018-12-19T15:23:01.399Z,100398.66
2018-12-19T15:25:30.106Z,100396.70
2018-12-19T15:27:58.806Z,100394.59
2018-12-19T15:30:27.484Z,100389.05
2018-12-19T15:32:56.622Z,100392.56
2018-12-19T15:35:25.366Z,100388.68
2018-12-19T15:37:54.095Z,100394.63
2018-12-19T15:40:22.882Z,100395.95
2018-12-19T15:42:51.637Z,100400.40
2018-12-19T15:45:20.483Z,100392.66
2018-12-19T15:47:49.163Z,100393.59
2018-12-19T15:50:17.919Z,100388.91
2018-12-19T15:52:46.840Z,100382.30
2018-12-19T15:55:15.657Z,100388.67
2018-12-19T15:57:44.411Z,100388.34
2018-12-19T16:00:16.807Z,100378.41
2018-12-19T16:02:45.524Z,100385.53
2018-12-19T16:05:14.294Z,100379.39
2018-12-19T16:07:42.971Z,100388.20
2018-12-19T16:10:12.091Z,100384.46
2018-12-19T16:12:40.969Z,100386.29
2018-12-19T16:15:09.778Z,100383.75
2018-12-19T16:17:38.597Z,100394.48
2018-12-19T16:20:08.280Z,100398.57
2018-12-19T16:22:36.963Z,100395.81
2018-12-19T16:25:05.896Z,100399.69
2018-12-19T16:27:34.994Z,100401.71
2018-12-19T16:30:03.906Z,100403.58
2018-12-19T16:32:32.738Z,100400.44
2018-12-19T16:35:01.665Z,100403.77
2018-12-19T16:37:30.879Z,100398.17
2018-12-19T16:39:59.588Z,100388.57
2018-12-19T16:42:28.324Z,100386.47
2018-12-19T16:44:57.170Z,100380.03
2018-12-19T16:47:25.982Z,100379.20
2018-12-19T16:49:54.834Z,100388.01
2018-12-19T16:52:23.527Z,100389.64
2018-12-19T16:54:52.271Z,100384.98
2018-12-19T16:57:21.034Z,100387.21
2018-12-19T16:59:49.822Z,100394.06
2018-12-19T17:02:18.567Z,100399.70
2018-12-19T17:04:47.361Z,100391.25
2018-12-19T17:07:22.743Z,100394.86
2018-12-19T17:09:51.556Z,100388.27
2018-12-19T17:12:20.273Z,100397.44
2018-12-19T17:14:49.135Z,100401.05
2018-12-19T17:17:18.187Z,100402.22
2018-12-19T17:19:47.927Z,100390.53
2018-12-19T17:22:16.733Z,100392.45
2018-12-19T17:24:45.955Z,100396.46
2018-12-19T17:27:15.039Z,100397.09
2018-12-19T17:29:43.835Z,100400.32
2018-12-19T17:32:12.721Z,100400.67
2018-12-19T17:34:41.510Z,100404.77
2018-12-19T17:37:10.505Z,100406.90
2018-12-19T17:39:39.326Z,100403.66
2018-12-19T17:42:08.166Z,100411.00
2018-12-19T17:44:36.920Z,100412.05
2018-12-19T17:47:05.840Z,100412.84
2018-12-19T17:49:34.804Z,100418.53
2018-12-19T17:52:03.960Z,100415.48
2018-12-19T17:54:32.737Z,100408.67
2018-12-19T17:57:01.674Z,100408.91
2018-12-19T17:59:30.460Z,100413.05
2018-12-19T18:01:59.346Z,100411.71
2018-12-19T18:04:28.199Z,100411.25
2018-12-19T18:06:57.032Z,100411.30
2018-12-19T18:09:25.771Z,100400.91
2018-12-19T18:11:54.720Z,100393.84
2018-12-19T18:14:23.537Z,100390.72
2018-12-19T18:16:52.335Z,100384.83
2018-12-19T18:19:23.464Z,100378.87
2018-12-19T18:21:51.787Z,100373.17
2018-12-19T18:24:22.163Z,100361.83
2018-12-19T18:26:50.914Z,100369.09
2018-12-19T18:29:19.724Z,100371.61
2018-12-19T18:31:48.646Z,100368.27
2018-12-19T18:34:17.501Z,100358.57
2018-12-19T18:36:46.316Z,100368.50
2018-12-19T18:39:15.215Z,100375.59
2018-12-19T18:41:43.996Z,100376.36
2018-12-19T18:44:14.092Z,100381.64
2018-12-19T18:46:42.809Z,100390.69
2018-12-19T18:49:11.687Z,100392.80
2018-12-19T18:51:40.675Z,100389.00
2018-12-19T18:54:09.420Z,100392.05
2018-12-19T18:56:38.503Z,100394.94
2018-12-19T18:59:07.915Z,100394.72
2018-12-19T19:01:37.832Z,100394.30
2018-12-19T19:04:06.780Z,100393.44
2018-12-19T19:06:35.628Z,100382.38
2018-12-19T19:09:05.306Z,100378.58
2018-12-19T19:11:37.264Z,100380.35
2018-12-19T19:14:06.221Z,100384.06
2018-12-19T19:16:34.983Z,100387.34
2018-12-19T19:19:03.806Z,100391.56
2018-12-19T19:21:32.596Z,100380.44
2018-12-19T19:24:01.372Z,100381.28
2018-12-19T19:26:30.139Z,100372.63
2018-12-19T19:28:58.870Z,100382.52
2018-12-19T19:31:27.895Z,100381.08
2018-12-19T19:33:56.705Z,100377.90
2018-12-19T19:36:25.424Z,100371.56
2018-12-19T19:38:54.246Z,100378.28
2018-12-19T19:41:23.462Z,100379.09
2018-12-19T19:43:52.300Z,100375.11
2018-12-19T19:46:21.106Z,100372.23
2018-12-19T19:48:49.902Z,100373.51
2018-12-19T19:51:18.623Z,100380.02
2018-12-19T19:57:28.695Z,100387.97
2018-12-19T19:59:57.543Z,100388.47
2018-12-19T20:02:26.474Z,100393.84
2018-12-19T20:04:55.209Z,100384.32
2018-12-19T20:07:24.203Z,100385.69
2018-12-19T20:09:52.937Z,100384.97
2018-12-19T20:12:21.863Z,100385.01
2018-12-19T20:14:50.564Z,100382.80
2018-12-19T20:17:24.828Z,100381.03
2018-12-19T20:19:53.726Z,100380.09
2018-12-19T20:22:22.690Z,100380.15
2018-12-19T20:24:51.621Z,100378.16
2018-12-19T20:27:20.303Z,100372.91
2018-12-19T20:29:50.022Z,100373.35
2018-12-19T20:32:18.893Z,100373.72
2018-12-19T20:34:47.634Z,100370.80
2018-12-19T20:37:16.523Z,100370.36
2018-12-19T20:39:45.570Z,100367.88
2018-12-19T20:42:14.878Z,100375.78
2018-12-19T20:44:43.867Z,100378.70
2018-12-19T20:47:13.871Z,100385.45
2018-12-19T20:49:42.737Z,100383.06
2018-12-19T20:52:11.712Z,100385.34
2018-12-19T20:54:40.614Z,100385.42
2018-12-19T20:57:09.422Z,100383.01
2018-12-19T20:59:38.270Z,100387.91
2018-12-19T21:02:07.256Z,100388.39
2018-12-19T21:04:36.054Z,100381.84
2018-12-19T21:07:05.636Z,100382.03
2018-12-19T21:09:34.415Z,100376.41
2018-12-19T21:12:03.643Z,100375.95
2018-12-19T21:14:33.184Z,100377.47
2018-12-19T21:17:07.488Z,100378.72
2018-12-19T21:19:36.439Z,100376.93
2018-12-19T21:22:09.183Z,100373.89
2018-12-19T21:24:37.988Z,100384.20
2018-12-19T21:27:06.763Z,100376.63
2018-12-19T21:29:35.650Z,100377.02
2018-12-19T21:32:04.969Z,100377.27
2018-12-19T21:34:33.795Z,100377.42
2018-12-19T21:37:02.768Z,100382.89
2018-12-19T21:39:31.511Z,100378.11
2018-12-19T21:42:00.375Z,100377.02
2018-12-19T21:44:29.227Z,100387.52
2018-12-19T21:46:58.080Z,100373.88
2018-12-19T21:49:26.928Z,100381.02
2018-12-19T21:51:55.584Z,100375.66
2018-12-19T21:54:24.455Z,100372.17
2018-12-19T21:56:53.593Z,100371.63
2018-12-19T21:59:23.572Z,100385.34
2018-12-19T22:01:52.455Z,100380.61
2018-12-19T22:04:21.298Z,100386.55
2018-12-19T22:06:50.025Z,100381.80
2018-12-19T22:09:18.814Z,100391.66
2018-12-19T22:11:47.692Z,100397.59
2018-12-19T22:14:16.407Z,100402.03
2018-12-19T22:16:50.437Z,100396.67
2018-12-19T22:19:19.679Z,100394.38
2018-12-19T22:21:48.371Z,100395.75
2018-12-19T22:24:17.165Z,100387.27
2018-12-19T22:26:46.057Z,100384.39
2018-12-19T22:29:14.821Z,100388.25
2018-12-19T22:31:44.686Z,100388.81
2018-12-19T22:34:14.122Z,100376.79
2018-12-19T22:36:42.817Z,100379.14
2018-12-19T22:39:15.879Z,100382.46
2018-12-19T22:41:44.702Z,100375.91
2018-12-19T22:44:14.821Z,100385.70
2018-12-19T22:46:45.272Z,100383.00
2018-12-19T22:49:14.205Z,100380.89
2018-12-19T22:51:42.934Z,100383.52
2018-12-19T22:54:11.785Z,100382.97
2018-12-19T22:56:40.445Z,100378.70
2018-12-19T22:59:09.524Z,100377.47
2018-12-19T23:01:43.714Z,100375.03
2018-12-19T23:04:12.561Z,100381.40
2018-12-19T23:06:41.764Z,100380.20
2018-12-19T23:09:10.559Z,100375.25
2018-12-19T23:11:39.453Z,100377.53
2018-12-19T23:14:15.184Z,100375.92
2018-12-19T23:16:44.934Z,100370.75
2018-12-19T23:19:19.302Z,100370.41
2018-12-19T23:21:53.846Z,100367.01
2018-12-19T23:24:28.201Z,100368.54
2018-12-19T23:26:57.236Z,100360.33
2018-12-19T23:29:27.957Z,100370.92
2018-12-19T23:31:57.002Z,100368.16
2018-12-19T23:34:25.780Z,100366.84
2018-12-19T23:36:54.503Z,100366.22
2018-12-19T23:39:23.289Z,100361.92
2018-12-19T23:41:52.113Z,100356.00
2018-12-19T23:44:27.827Z,100353.17
2018-12-19T23:46:58.114Z,100355.96
2018-12-19T23:49:26.925Z,100354.74
2018-12-19T23:51:55.730Z,100352.97
2018-12-19T23:54:29.023Z,100351.61
2018-12-19T23:56:55.225Z,100360.70
2018-12-19T23:59:24.052Z,100360.69
